ROMMA est une association bénévole à but non lucratif. Votre soutien est indispensable : ADHERER à ROMMA ou FAIRE un DON

Le Versoud - (38, Isère)

Vallée du Grésivaudan (220 m)   Longitude: 05° 51' 44" E   Latitude: 45° 13' 06" N Station partenaire n°6
 

Détail journalier du     <<     >>

Température Humidité Pression Vent Dir Rafale Dir. rafale Ensol.
Heure (°C) (%) (hPa) (km/h) (km/h) (min)
01:00 14.692101900---0
02:00 14.592101900---0
03:00 14.493101900---0
04:00 14.293101900---0
05:00 14.294101900---0
06:00 14.094101900---0
07:00 13.794101900---0
08:00 13.794101900---0
09:00 13.991102000---0
10:00 14.688102002SE0
11:00 16.381101902SE45
12:00 17.1781019011ESE55
13:00 18.172101806E60
14:00 19.665101703E60
15:00 20.365101705E60
16:00 19.3701017015ENE55
17:00 17.47510171NE15NE55
18:00 15.881101703NE0
19:00 14.488101800---0
20:00 13.491101900---0
21:00 13.591101900---0
22:00 13.392101900---0
23:00 13.492101900---0
minuit 13.191101900---0

Graphique du 30-10-2019

 

Serveur OMMA